This is the latest recevied weather packets stored in our database for station/object EA8BYO-10. If no packets are shown the sender has not sent any weather packets the latest 1 day(s).
| Time | Temp. | Humidity | Pressure | Rain* | Wind** | Luminosity | Snow |
|---|---|---|---|---|---|---|---|
| 1788600813 | 27.22° C | 52% | 1007.3 hPa | - | - | - | - |
| 1788599912 | 27.78° C | 50% | 1007.2 hPa | - | - | - | - |
| 1788599012 | 27.78° C | 50% | 1007.3 hPa | - | - | - | - |
| 1788598112 | 27.22° C | 55% | 1007.5 hPa | - | - | - | - |
| 1788597212 | 25.56° C | 62% | 1007.4 hPa | - | - | - | - |
| 1788596312 | 24.44° C | 65% | 1008 hPa | - | - | - | - |
| 1788595412 | 24.44° C | 65% | 1008 hPa | - | - | - | - |
| 1788594512 | 23.89° C | 67% | 1008.5 hPa | - | - | - | - |
| 1788593612 | 23.89° C | 67% | 1008.7 hPa | - | - | - | - |
| 1788592712 | 23.89° C | 70% | 1008.7 hPa | - | - | - | - |
| 1788591812 | 23.89° C | 69% | 1008.3 hPa | - | - | - | - |
| 1788590912 | 23.33° C | 71% | 1007.9 hPa | - | - | - | - |
| 1788590011 | 23.89° C | 68% | 1007.3 hPa | - | - | - | - |
| 1788589111 | 24.44° C | 64% | 1006.8 hPa | - | - | - | - |
| 1788588211 | 28.33° C | 43% | 1006.2 hPa | - | - | - | - |
| 1788587311 | 30.56° C | 35% | 1003.7 hPa | - | - | - | - |
| 1788586411 | 26.67° C | 52% | 1004 hPa | - | - | - | - |
| 1788585511 | 25° C | 57% | 1004.4 hPa | - | - | - | - |
| 1788584611 | 24.44° C | 60% | 1005.2 hPa | - | - | - | - |
| 1788583711 | 23.89° C | 61% | 1006.4 hPa | - | - | - | - |
| 1788582811 | 23.89° C | 61% | 1006.7 hPa | - | - | - | - |
| 1788581911 | 23.89° C | 61% | 1007 hPa | - | - | - | - |
| 1788581010 | 23.89° C | 62% | 1007 hPa | - | - | - | - |
| 1788580110 | 23.89° C | 63% | 1006.9 hPa | - | - | - | - |
| 1788579210 | 23.89° C | 65% | 1006.8 hPa | - | - | - | - |
* Rain since midnight (hover to see other rain measurements)
** Current wind speed in m/s (hover to see current wind gust speed)